Time;durP1;ratioP1;P1;durP2;ratioP2;P2;SDS_P1;SDS_P2;PMS_P1;PMS_P2;Temp;Humidity;BMP_temperature;BMP_pressure;BME280_temperature;BME280_humidity;BME280_pressure;Samples;Min_cycle;Max_cycle;Signal;HPM_P1;HPM_P2
2023/10/01 00:01:15;;;;;;;11.43;6.35;;;;;;;20.54;100.00;100835.25;4993220;28;20485;-70
2023/10/01 00:03:40;;;;;;;12.60;5.88;;;;;;;20.16;100.00;100779.69;4994693;28;20026;-69
2023/10/01 00:06:06;;;;;;;12.75;6.15;;;;;;;20.15;100.00;100779.75;4994583;28;20022;-68
2023/10/01 00:08:33;;;;;;;11.05;6.45;;;;;;;20.63;100.00;100824.44;4993309;28;20089;-69
2023/10/01 00:11:00;;;;;;;10.73;5.85;;;;;;;20.44;100.00;100818.59;4994578;28;20037;-68
2023/10/01 00:13:26;;;;;;;11.15;6.05;;;;;;;20.45;100.00;100829.78;4994669;28;20038;-68
2023/10/01 00:15:54;;;;;;;13.38;6.03;;;;;;;20.26;100.00;100785.19;4994378;28;20439;-68
2023/10/01 00:18:20;;;;;;;10.82;5.63;;;;;;;20.38;100.00;100829.25;4976963;28;20420;-68
2023/10/01 00:20:46;;;;;;;13.68;5.90;;;;;;;20.24;100.00;100825.78;4994359;28;20057;-69
2023/10/01 00:23:12;;;;;;;11.18;5.95;;;;;;;20.06;100.00;100770.78;4992837;28;20046;-69
2023/10/01 00:25:38;;;;;;;11.77;5.93;;;;;;;20.05;100.00;100787.16;4992865;28;20038;-69
2023/10/01 00:28:05;;;;;;;12.55;5.90;;;;;;;19.73;100.00;100723.50;4994114;28;20038;-69
2023/10/01 00:30:31;;;;;;;8.48;5.65;;;;;;;20.41;100.00;100836.03;4993724;28;20030;-69
2023/10/01 00:32:57;;;;;;;13.25;6.15;;;;;;;20.32;100.00;100823.63;4994155;28;20022;-68
2023/10/01 00:35:25;;;;;;;9.55;5.82;;;;;;;20.28;100.00;100812.59;4976440;28;20420;-68
2023/10/01 00:37:51;;;;;;;14.93;6.15;;;;;;;20.17;100.00;100829.56;4994033;28;20054;-68
2023/10/01 00:40:17;;;;;;;13.98;5.72;;;;;;;19.78;100.00;100765.41;4976218;28;20026;-68
2023/10/01 00:42:42;;;;;;;10.80;5.70;;;;;;;20.20;100.00;100830.28;4993683;28;20038;-69
2023/10/01 00:45:11;;;;;;;10.80;5.82;;;;;;;19.86;100.00;100751.19;4992687;28;20035;-68
2023/10/01 00:47:42;;;;;;;11.98;5.75;;;;;;;20.19;100.00;100827.75;4993498;28;20026;-68
2023/10/01 00:50:12;;;;;;;10.23;5.90;;;;;;;19.83;100.00;100771.16;4992363;28;20053;-67
2023/10/01 00:52:39;;;;;;;15.63;5.80;;;;;;;20.03;100.00;100812.22;4975594;28;20117;-68
2023/10/01 00:55:06;;;;;;;11.63;6.03;;;;;;;19.73;100.00;100755.31;4992706;28;20046;-67
2023/10/01 00:57:32;;;;;;;12.57;6.13;;;;;;;20.02;100.00;100817.47;4993285;28;20034;-68
2023/10/01 00:59:57;;;;;;;13.35;5.97;;;;;;;19.79;100.00;100767.91;4990675;28;20046;-68
2023/10/01 01:02:23;;;;;;;8.27;5.85;;;;;;;19.60;100.00;100735.41;4992741;28;20061;-69
2023/10/01 01:05:05;;;;;;;10.60;5.90;;;;;;;20.09;100.00;100803.31;4993487;28;20121;-69
2023/10/01 01:07:34;;;;;;;10.98;5.65;;;;;;;20.05;100.00;100809.56;4993644;28;20030;-69
2023/10/01 01:10:01;;;;;;;9.85;5.90;;;;;;;20.02;100.00;100804.56;4993427;28;20504;-68
2023/10/01 01:12:27;;;;;;;10.20;6.07;;;;;;;19.76;100.00;100751.75;4993181;28;20026;-67
2023/10/01 01:14:54;;;;;;;10.00;5.85;;;;;;;19.69;100.00;100733.19;5010957;28;20054;-67
2023/10/01 01:17:21;;;;;;;14.13;6.30;;;;;;;19.73;100.00;100736.41;4994765;28;20029;-67
2023/10/01 01:19:53;;;;;;;10.80;5.88;;;;;;;19.65;100.00;100742.00;5012718;28;20147;-68
2023/10/01 01:22:28;;;;;;;14.50;6.18;;;;;;;19.98;100.00;100795.31;5012330;28;20165;-67
2023/10/01 01:24:57;;;;;;;17.75;6.20;;;;;;;19.58;100.00;100734.66;5012257;28;20045;-68
2023/10/01 01:27:23;;;;;;;11.60;5.40;;;;;;;19.57;100.00;100733.00;4995126;28;20526;-70
2023/10/01 01:29:50;;;;;;;13.90;6.10;;;;;;;19.75;100.00;100742.34;5012653;28;20037;-70
2023/10/01 01:32:16;;;;;;;12.15;6.05;;;;;;;19.51;100.00;100733.34;5012710;28;20041;-69
2023/10/01 01:34:46;;;;;;;13.98;6.13;;;;;;;19.16;100.00;100699.00;5011851;28;20033;-69
2023/10/01 01:37:30;;;;;;;11.55;6.30;;;;;;;19.61;100.00;100794.66;5011881;28;20033;-69
2023/10/01 01:39:57;;;;;;;13.27;6.03;;;;;;;19.01;100.00;100687.72;5012325;28;20069;-70
2023/10/01 01:42:24;;;;;;;20.02;6.40;;;;;;;19.34;100.00;100728.19;4987607;28;20077;-70
2023/10/01 01:45:18;;;;;;;12.88;5.93;;;;;;;19.55;100.00;100733.06;4973638;28;20027;-69
2023/10/01 01:47:38;;;;;;;13.27;6.13;;;;;;;20.04;100.00;100782.94;4988110;28;20402;-73
2023/10/01 01:50:21;;;;;;;8.13;6.07;;;;;;;19.32;100.00;100678.41;4988308;28;20038;-70
2023/10/01 01:52:51;;;;;;;14.75;5.80;;;;;;;19.46;100.00;100717.25;4992502;28;20493;-69
2023/10/01 01:55:29;;;;;;;12.27;6.05;;;;;;;19.49;100.00;100725.66;4992518;28;20035;-69
2023/10/01 01:58:06;;;;;;;11.77;6.18;;;;;;;19.88;100.00;100785.50;4990486;28;20081;-71
2023/10/01 02:00:34;;;;;;;7.65;5.32;;;;;;;19.37;100.00;100691.94;4975127;28;20281;-69
2023/10/01 02:03:10;;;;;;;9.23;5.32;;;;;;;19.53;100.00;100713.44;4974792;28;20030;-69
2023/10/01 02:05:41;;;;;;;11.82;6.07;;;;;;;19.79;100.00;100774.81;4991994;28;20065;-69
2023/10/01 02:08:09;;;;;;;14.43;5.80;;;;;;;19.44;100.00;100719.06;4991731;28;20034;-70
2023/10/01 02:10:44;;;;;;;15.02;5.72;;;;;;;19.42;100.00;100706.25;4991651;28;20044;-69
2023/10/01 02:13:17;;;;;;;10.43;6.00;;;;;;;19.42;100.00;100720.91;4991545;28;20400;-69
2023/10/01 02:15:43;;;;;;;7.82;6.00;;;;;;;19.66;100.00;100754.00;4991723;28;20038;-69
2023/10/01 02:18:09;;;;;;;11.02;6.05;;;;;;;19.63;100.00;100773.97;4990309;28;20484;-69
2023/10/01 02:20:35;;;;;;;14.63;5.57;;;;;;;19.33;100.00;100717.03;4991156;28;20057;-69
2023/10/01 02:23:04;;;;;;;8.80;5.55;;;;;;;19.51;100.00;100730.75;4992034;28;20034;-69
2023/10/01 02:25:39;;;;;;;9.15;5.85;;;;;;;19.29;100.00;100663.97;4994626;28;20030;-69
2023/10/01 02:28:13;;;;;;;8.55;5.70;;;;;;;19.63;100.00;100759.31;4998651;28;20034;-71
2023/10/01 02:30:41;;;;;;;7.22;5.15;;;;;;;19.27;100.00;100722.50;4998932;28;20054;-69
2023/10/01 02:33:17;;;;;;;10.30;5.63;;;;;;;19.37;100.00;100751.28;4991777;28;20026;-69
2023/10/01 02:35:49;;;;;;;11.35;5.68;;;;;;;19.70;100.00;100764.97;4991870;28;20027;-69
2023/10/01 02:41:01;;;;;;;11.80;5.85;;;;;;;19.62;100.00;100780.03;4992180;28;20388;-69
2023/10/01 02:43:34;;;;;;;11.93;5.95;;;;;;;19.19;100.00;100722.06;4991593;28;20113;-69
2023/10/01 02:46:07;;;;;;;9.95;5.40;;;;;;;19.57;100.00;100776.88;4991519;28;20065;-69
2023/10/01 02:48:34;;;;;;;10.13;5.45;;;;;;;19.51;100.00;100761.72;4991966;28;20109;-69
2023/10/01 02:51:14;;;;;;;16.77;6.03;;;;;;;19.27;100.00;100719.09;4991336;28;20033;-69
2023/10/01 02:54:00;;;;;;;11.23;5.82;;;;;;;19.73;100.00;100782.88;4991595;28;20032;-70
2023/10/01 02:56:32;;;;;;;10.32;6.15;;;;;;;19.72;100.00;100758.00;4973865;28;20038;-70
2023/10/01 02:59:07;;;;;;;12.27;5.50;;;;;;;19.40;100.00;100702.94;4991766;28;20034;-70
2023/10/01 03:01:34;;;;;;;8.50;5.50;;;;;;;19.78;100.00;100765.41;4991455;28;20038;-70
2023/10/01 03:04:05;;;;;;;8.75;5.68;;;;;;;19.71;100.00;100733.94;4991617;28;20133;-70
2023/10/01 03:06:33;;;;;;;9.45;5.55;;;;;;;19.35;100.00;100706.66;4991846;28;20027;-70
2023/10/01 03:11:24;;;;;;;13.40;5.72;;;;;;;19.75;100.00;100781.03;4991169;28;20030;-70
2023/10/01 03:13:51;;;;;;;10.07;5.70;;;;;;;19.65;100.00;100779.84;4991321;28;20081;-70
2023/10/01 03:19:18;;;;;;;10.40;5.50;;;;;;;19.67;100.00;100788.34;4991259;28;20504;-69
2023/10/01 03:24:29;;;;;;;8.90;5.95;;;;;;;19.63;100.00;100784.28;4991507;28;20045;-69
2023/10/01 03:26:58;;;;;;;11.85;6.32;;;;;;;19.14;100.00;100721.47;4989735;28;20034;-71
2023/10/01 03:29:34;;;;;;;11.02;6.00;;;;;;;19.59;100.00;100777.63;4973869;28;20428;-69
2023/10/01 03:32:27;;;;;;;14.90;5.78;;;;;;;19.20;100.00;100720.31;4991265;28;20030;-70
2023/10/01 03:34:52;;;;;;;11.98;5.80;;;;;;;19.58;100.00;100783.69;4991007;28;20060;-69
2023/10/01 03:37:19;;;;;;;12.45;6.10;;;;;;;19.54;100.00;100782.16;4991090;28;20085;-69
2023/10/01 03:39:50;;;;;;;8.80;5.70;;;;;;;19.42;100.00;100772.47;4991034;28;20034;-69
2023/10/01 03:42:17;;;;;;;8.02;5.53;;;;;;;19.38;100.00;100786.44;4973150;28;20088;-69
2023/10/01 03:47:29;;;;;;;9.27;5.90;;;;;;;19.51;100.00;100805.56;4991300;28;20103;-69
2023/10/01 03:49:57;;;;;;;8.65;5.70;;;;;;;19.12;100.00;100745.66;4991089;28;20125;-70
2023/10/01 03:52:28;;;;;;;9.55;5.97;;;;;;;19.43;100.00;100816.25;4991323;28;20061;-70
2023/10/01 03:55:15;;;;;;;;;;;;;;;19.42;100.00;100811.19;4973886;28;20034;-69
2023/10/01 03:57:54;;;;;;;10.30;5.90;;;;;;;19.22;100.00;100801.84;4973813;28;19910;-70
2023/10/01 04:00:33;;;;;;;10.68;6.00;;;;;;;19.20;100.00;100764.13;4989865;28;20504;-69
2023/10/01 04:02:58;;;;;;;10.77;6.30;;;;;;;19.45;100.00;100819.59;4990882;28;20725;-70
2023/10/01 04:05:34;;;;;;;9.05;6.00;;;;;;;18.93;100.00;100733.72;4972959;28;20045;-70
2023/10/01 04:08:11;;;;;;;14.05;6.38;;;;;;;19.44;100.00;100806.78;4990501;28;20038;-70
2023/10/01 04:10:38;;;;;;;11.93;6.32;;;;;;;19.26;100.00;100823.16;4990331;28;20071;-68
2023/10/01 04:13:13;;;;;;;12.50;6.70;;;;;;;18.78;100.00;100754.22;4990756;28;20034;-69
2023/10/01 04:15:41;;;;;;;12.10;5.93;;;;;;;18.80;100.00;100762.72;4990765;28;20060;-68
2023/10/01 04:18:28;;;;;;;9.77;6.43;;;;;;;18.75;100.00;100773.28;4991007;28;20113;-69
2023/10/01 04:23:29;;;;;;;10.80;6.50;;;;;;;18.97;100.00;100803.97;4994172;28;20042;-68
2023/10/01 04:26:06;;;;;;;10.02;6.60;;;;;;;18.89;100.00;100822.41;4994041;28;20041;-68
2023/10/01 04:28:43;;;;;;;11.13;6.60;;;;;;;18.93;100.00;100790.41;4994282;28;20030;-69
2023/10/01 04:31:10;;;;;;;16.73;6.43;;;;;;;18.87;100.00;100788.13;4994377;28;20511;-70
2023/10/01 04:33:36;;;;;;;11.25;6.25;;;;;;;18.99;100.00;100805.53;4994234;28;20038;-69
2023/10/01 04:36:04;;;;;;;13.18;6.43;;;;;;;19.07;100.00;100809.50;4993612;28;20060;-69
2023/10/01 04:38:32;;;;;;;11.75;6.53;;;;;;;18.90;100.00;100811.16;4993705;28;20026;-68
2023/10/01 04:41:03;;;;;;;14.48;6.63;;;;;;;18.66;100.00;100772.88;4976434;28;20120;-68
2023/10/01 04:43:35;;;;;;;10.20;6.13;;;;;;;18.90;100.00;100800.00;4993953;28;20538;-69
2023/10/01 04:46:08;;;;;;;;;;;;;;;19.16;100.00;100817.63;4994334;28;20369;-68
2023/10/01 04:48:36;;;;;;;12.95;6.72;;;;;;;18.92;100.00;100752.66;4976361;28;20000;-68
2023/10/01 04:51:07;;;;;;;11.20;7.45;;;;;;;18.91;100.00;100783.66;4994044;28;20559;-69
2023/10/01 04:53:34;;;;;;;10.20;6.67;;;;;;;19.17;100.00;100754.00;4976377;28;20539;-68
2023/10/01 04:56:06;;;;;;;11.00;6.60;;;;;;;20.76;100.00;100787.56;4993848;28;20037;-68
2023/10/01 04:58:41;;;;;;;11.90;6.45;;;;;;;20.94;100.00;100786.47;4993563;28;20030;-69
2023/10/01 05:01:11;;;;;;;13.25;6.32;;;;;;;21.74;100.00;100777.34;4993671;28;20564;-69
2023/10/01 05:03:40;;;;;;;9.45;6.38;;;;;;;21.42;100.00;100737.91;4975836;28;20034;-68
2023/10/01 05:06:13;;;;;;;8.65;6.50;;;;;;;22.04;100.00;100788.44;4976007;28;20026;-68
2023/10/01 05:08:42;;;;;;;11.98;6.70;;;;;;;22.17;100.00;100721.97;4993383;28;20575;-68
2023/10/01 05:11:12;;;;;;;11.43;6.40;;;;;;;21.93;100.00;100715.75;4993411;28;20456;-69
2023/10/01 05:13:42;;;;;;;12.88;6.15;;;;;;;21.43;100.00;100756.84;4976162;28;20404;-69
2023/10/01 05:16:12;;;;;;;11.25;6.32;;;;;;;20.59;100.00;100775.56;4992984;28;20041;-68
2023/10/01 05:19:03;;;;;;;10.73;6.03;;;;;;;20.13;100.00;100784.16;4993767;28;20045;-69
2023/10/01 05:21:29;;;;;;;8.40;6.72;;;;;;;20.41;100.00;100784.34;4953224;28;20126;-69
2023/10/01 05:23:55;;;;;;;11.90;5.80;;;;;;;20.85;100.00;100823.22;4954479;28;20482;-68
2023/10/01 05:26:21;;;;;;;11.40;6.30;;;;;;;20.81;100.00;100812.22;4954147;28;20050;-68
2023/10/01 05:28:47;;;;;;;12.25;6.03;;;;;;;21.10;100.00;100805.38;4954361;28;20494;-69
2023/10/01 05:31:14;;;;;;;11.35;6.47;;;;;;;21.03;100.00;100817.03;4954264;28;20409;-69
2023/10/01 05:33:45;;;;;;;12.98;6.20;;;;;;;21.04;100.00;100754.03;4954584;28;20123;-69
2023/10/01 05:36:13;;;;;;;12.05;5.80;;;;;;;21.40;100.00;100811.38;4954378;28;20091;-69
2023/10/01 05:38:40;;;;;;;12.27;6.10;;;;;;;21.56;100.00;100825.06;4954334;28;20469;-69
2023/10/01 05:41:13;;;;;;;8.90;6.18;;;;;;;21.34;100.00;100754.81;4953853;28;20070;-70
2023/10/01 05:43:43;;;;;;;10.13;5.95;;;;;;;21.69;100.00;100797.50;4954345;28;20050;-69
2023/10/01 05:46:09;;;;;;;13.20;6.18;;;;;;;21.89;100.00;100763.50;4954338;28;20031;-69
2023/10/01 05:48:39;;;;;;;12.45;6.00;;;;;;;21.98;100.00;100808.72;4959555;28;20035;-69
2023/10/01 05:51:11;;;;;;;10.50;6.03;;;;;;;21.53;100.00;100719.13;4960654;28;20118;-69
2023/10/01 05:53:37;;;;;;;14.52;5.88;;;;;;;21.80;100.00;100709.66;4952465;28;20035;-69
2023/10/01 05:56:10;;;;;;;12.63;6.10;;;;;;;21.79;100.00;100751.19;4952395;28;20039;-69
2023/10/01 05:58:37;;;;;;;9.32;6.00;;;;;;;21.89;100.00;100711.69;4952544;29;20027;-69
2023/10/01 06:01:05;;;;;;;10.60;6.00;;;;;;;22.54;100.00;100798.19;4953982;28;20030;-68
2023/10/01 06:03:33;;;;;;;10.10;6.07;;;;;;;22.64;100.00;100791.50;4953557;28;20041;-68
2023/10/01 06:06:08;;;;;;;9.73;5.97;;;;;;;22.56;100.00;100800.72;4952816;28;20039;-68
2023/10/01 06:08:44;;;;;;;12.98;5.95;;;;;;;22.36;100.00;100752.72;4953834;28;20038;-67
2023/10/01 06:11:15;;;;;;;7.45;5.60;;;;;;;22.71;100.00;100779.84;4953548;28;20035;-69
2023/10/01 06:14:03;;;;;;;9.45;5.80;;;;;;;22.40;100.00;100729.09;4953810;28;20046;-69
2023/10/01 06:16:28;;;;;;;10.80;5.82;;;;;;;22.41;100.00;100743.72;4953263;28;20058;-69
2023/10/01 06:18:58;;;;;;;12.98;5.90;;;;;;;22.76;100.00;100727.66;4953720;28;20482;-70
2023/10/01 06:21:25;;;;;;;13.27;5.83;;;;;;;23.28;100.00;100790.69;4970750;28;20476;-69
2023/10/01 06:23:52;;;;;;;8.77;6.10;;;;;;;23.32;100.00;100789.59;4972928;28;20030;-70
2023/10/01 06:26:37;;;;;;;10.27;5.68;;;;;;;23.69;100.00;100790.50;4971259;28;20031;-69
2023/10/01 06:29:07;;;;;;;9.95;5.88;;;;;;;23.13;100.00;100745.88;4972327;28;20061;-68
2023/10/01 06:31:48;;;;;;;11.18;5.53;;;;;;;23.52;100.00;100742.31;4971392;28;20518;-69
2023/10/01 06:34:15;;;;;;;11.70;5.68;;;;;;;23.73;100.00;100794.56;4972588;28;20027;-68
2023/10/01 06:36:42;;;;;;;10.40;5.82;;;;;;;23.53;100.00;100767.34;4972382;28;20121;-69
2023/10/01 06:39:19;;;;;;;11.30;5.50;;;;;;;23.97;100.00;100770.28;4971987;28;20047;-68
2023/10/01 06:41:44;;;;;;;8.95;5.60;;;;;;;24.44;100.00;100792.09;4971280;28;20125;-69
2023/10/01 06:44:13;;;;;;;8.75;5.70;;;;;;;24.35;100.00;100792.72;4971811;28;20532;-68
2023/10/01 06:46:40;;;;;;;10.57;5.35;;;;;;;24.46;100.00;100759.00;4972416;28;20031;-69
2023/10/01 06:49:08;;;;;;;9.52;5.85;;;;;;;24.25;100.00;100799.53;4972358;28;20105;-68
2023/10/01 06:51:43;;;;;;;10.10;5.38;;;;;;;24.25;100.00;100774.38;4972223;28;20026;-69
2023/10/01 06:54:10;;;;;;;7.55;5.72;;;;;;;23.84;100.00;100756.50;4972280;28;20486;-69
2023/10/01 06:56:38;;;;;;;10.07;5.47;;;;;;;24.50;100.00;100804.66;4971028;28;20026;-68
2023/10/01 07:01:42;;;;;;;10.75;5.75;;;;;;;24.34;100.00;100746.88;4971944;28;20030;-68
2023/10/01 07:04:08;;;;;;;9.05;5.57;;;;;;;24.77;100.00;100806.09;4972044;28;20066;-69
2023/10/01 07:06:36;;;;;;;9.30;5.97;;;;;;;24.44;100.00;100699.31;4971500;28;20038;-69
2023/10/01 07:09:24;;;;;;;9.13;5.90;;;;;;;24.74;100.00;100756.88;4972246;28;20030;-69
2023/10/01 07:11:52;;;;;;;8.40;5.60;;;;;;;25.24;100.00;100783.47;4987107;28;20058;-69
2023/10/01 07:14:30;;;;;;;8.07;5.88;;;;;;;25.45;100.00;100780.09;4986914;28;20030;-68
2023/10/01 07:16:57;;;;;;;10.57;6.00;;;;;;;25.26;100.00;100790.25;4971596;28;20062;-69
2023/10/01 07:19:23;;;;;;;8.65;6.03;;;;;;;26.29;100.00;100784.78;4972976;28;20054;-69
2023/10/01 07:21:56;;;;;;;9.98;5.57;;;;;;;25.87;100.00;100786.38;4991467;28;20069;-69
2023/10/01 07:24:30;;;;;;;10.32;5.40;;;;;;;25.46;100.00;100807.81;4991517;28;20038;-69
2023/10/01 07:27:03;;;;;;;9.40;5.57;;;;;;;25.78;100.00;100792.31;4991499;28;20022;-69
2023/10/01 07:29:30;;;;;;;9.90;5.90;;;;;;;25.60;100.00;100734.66;4990970;28;20035;-69
2023/10/01 07:31:56;;;;;;;10.80;6.10;;;;;;;26.05;100.00;100797.97;4991208;28;20034;-69
2023/10/01 07:34:25;;;;;;;7.22;6.03;;;;;;;25.93;100.00;100809.34;4973904;28;20041;-69
2023/10/01 07:36:53;;;;;;;9.23;5.38;;;;;;;25.84;100.00;100757.13;4991355;28;20112;-69
2023/10/01 07:39:21;;;;;;;10.55;5.72;;;;;;;26.07;100.00;100728.28;4991324;28;20061;-70
2023/10/01 07:41:48;;;;;;;9.90;6.00;;;;;;;26.49;100.00;100752.69;4990850;28;20041;-69
2023/10/01 07:44:15;;;;;;;9.13;5.68;;;;;;;26.48;100.00;100769.31;4972982;28;20030;-69
2023/10/01 07:46:42;;;;;;;10.63;5.75;;;;;;;26.15;100.00;100740.72;4970659;28;20491;-69
2023/10/01 07:49:09;;;;;;;15.25;6.00;;;;;;;26.40;100.00;100738.59;4971727;28;20034;-68
2023/10/01 07:51:44;;;;;;;9.40;5.85;;;;;;;26.42;100.00;100746.31;4970265;28;20026;-69
2023/10/01 07:54:10;;;;;;;12.50;5.25;;;;;;;26.67;100.00;100782.50;4971819;28;20478;-68
2023/10/01 07:56:47;;;;;;;9.93;6.18;;;;;;;27.55;100.00;100782.97;4971159;28;20038;-68
2023/10/01 07:59:28;;;;;;;13.05;6.13;;;;;;;27.61;100.00;100727.53;4974025;28;20121;-70
2023/10/01 08:07:15;;;;;;;9.20;5.80;;;;;;;26.70;100.00;100774.44;4975170;28;20062;-68
2023/10/01 08:10:04;;;;;;;13.82;6.40;;;;;;;26.73;100.00;100724.63;4975279;28;20035;-69
2023/10/01 08:13:04;;;;;;;11.25;6.30;;;;;;;26.93;100.00;100793.44;4975180;28;20066;-69
2023/10/01 08:15:29;;;;;;;11.75;6.00;;;;;;;26.95;100.00;100784.53;4974606;28;20121;-69
2023/10/01 08:17:55;;;;;;;11.32;5.95;;;;;;;26.54;100.00;100751.34;4975060;28;20417;-69
2023/10/01 08:20:22;;;;;;;11.63;5.90;;;;;;;26.90;100.00;100791.91;4974874;28;20057;-69
2023/10/01 08:25:42;;;;;;;12.02;5.90;;;;;;;27.61;100.00;100733.59;4975069;28;20034;-68
2023/10/01 08:30:43;;;;;;;12.32;6.35;;;;;;;27.34;100.00;100793.44;4974711;28;20600;-70
2023/10/01 08:33:24;;;;;;;10.43;5.90;;;;;;;27.56;100.00;100745.41;4973660;28;20404;-70
2023/10/01 08:36:12;;;;;;;16.30;5.90;;;;;;;27.20;100.00;100812.84;4974647;28;20062;-69
2023/10/01 08:38:38;;;;;;;10.65;5.60;;;;;;;27.75;100.00;100784.69;4973510;28;20030;-69
2023/10/01 08:41:05;;;;;;;10.10;5.93;;;;;;;27.57;100.00;100768.81;4974609;28;20075;-69
2023/10/01 08:43:35;;;;;;;8.63;5.72;;;;;;;27.52;100.00;100738.78;4973183;28;20126;-69
2023/10/01 08:46:31;;;;;;;8.77;5.80;;;;;;;27.61;100.00;100793.72;4974750;28;20033;-69
2023/10/01 08:49:18;;;;;;;9.02;6.20;;;;;;;27.41;100.00;100784.13;4974466;28;20097;-69
2023/10/01 08:51:43;;;;;;;11.70;6.00;;;;;;;27.41;100.00;100800.63;4974207;28;20489;-69
2023/10/01 08:54:14;;;;;;;13.23;6.03;;;;;;;28.67;100.00;100721.47;4974135;28;20038;-68
2023/10/01 08:56:44;;;;;;;10.73;6.00;;;;;;;27.91;100.00;100751.81;4974174;28;20034;-69
2023/10/01 08:59:23;;;;;;;11.90;6.03;;;;;;;27.61;100.00;100758.91;4956695;28;20066;-69
2023/10/01 09:01:52;;;;;;;9.65;6.10;;;;;;;28.16;100.00;100746.13;4973869;28;20406;-69
2023/10/01 09:04:44;;;;;;;8.70;5.78;;;;;;;28.39;100.00;100790.34;4974089;28;20050;-68
2023/10/01 09:07:11;;;;;;;13.30;6.32;;;;;;;28.39;100.00;100751.91;4973807;28;20038;-69
2023/10/01 09:09:54;;;;;;;11.10;5.93;;;;;;;28.75;100.00;100777.44;4989429;28;20058;-69
2023/10/01 09:12:20;;;;;;;7.60;5.75;;;;;;;28.19;100.00;100797.34;4984285;28;20034;-70
2023/10/01 09:14:48;;;;;;;8.63;5.78;;;;;;;27.76;100.00;100815.91;4973966;28;20098;-69
2023/10/01 09:17:27;;;;;;;7.88;5.90;;;;;;;27.87;100.00;100791.47;4974070;28;20073;-69
2023/10/01 09:19:52;;;;;;;11.20;5.90;;;;;;;28.73;100.00;100736.63;4973621;28;20417;-69
2023/10/01 09:25:27;;;;;;;12.32;6.10;;;;;;;28.16;100.00;100813.31;4973943;28;20039;-70
2023/10/01 09:27:57;;;;;;;11.18;5.97;;;;;;;27.82;100.00;100804.09;4972326;28;20421;-69
2023/10/01 09:30:27;;;;;;;9.65;6.10;;;;;;;28.08;100.00;100737.31;4973528;28;20416;-70
2023/10/01 09:33:14;;;;;;;11.18;6.28;;;;;;;28.52;100.00;100799.59;4973591;28;20486;-70
2023/10/01 09:35:56;;;;;;;10.30;6.25;;;;;;;27.74;100.00;100760.31;4973108;28;20037;-69
2023/10/01 09:38:27;;;;;;;9.20;5.68;;;;;;;27.92;100.00;100790.09;4973492;28;20019;-70
2023/10/01 09:40:54;;;;;;;12.25;6.55;;;;;;;27.70;100.00;100755.47;4971836;28;20113;-70
2023/10/01 09:43:29;;;;;;;11.50;6.35;;;;;;;28.17;100.00;100697.22;4973533;28;20181;-69
2023/10/01 09:46:00;;;;;;;8.80;6.03;;;;;;;28.01;100.00;100731.78;4973545;28;20035;-70
2023/10/01 09:48:30;;;;;;;;;;;;;;;28.25;100.00;100791.56;4973721;28;20030;-70
2023/10/01 09:51:09;;;;;;;10.32;6.32;;;;;;;28.34;100.00;100774.22;4973225;28;19921;-70
2023/10/01 09:53:56;;;;;;;9.82;5.82;;;;;;;28.16;100.00;100789.78;4972040;28;20485;-70
2023/10/01 09:56:27;;;;;;;12.02;6.15;;;;;;;27.76;100.00;100736.66;4963133;28;20073;-70
2023/10/01 09:59:06;;;;;;;12.23;6.07;;;;;;;28.93;100.00;100751.34;4971986;28;20489;-70
2023/10/01 10:01:33;;;;;;;9.70;6.05;;;;;;;28.61;100.00;100706.31;4973232;28;20030;-70
2023/10/01 10:04:01;;;;;;;8.32;5.90;;;;;;;27.75;100.00;100792.53;4972021;28;20488;-70
2023/10/01 10:06:27;;;;;;;13.25;6.38;;;;;;;29.01;100.00;100760.16;4971546;28;20409;-70
2023/10/01 10:09:03;;;;;;;11.93;6.57;;;;;;;28.80;100.00;100759.50;4972513;28;20050;-70
2023/10/01 10:11:36;;;;;;;10.77;6.43;;;;;;;28.84;100.00;100684.91;4972884;28;20031;-70
2023/10/01 10:14:26;;;;;;;13.18;6.80;;;;;;;29.20;100.00;100751.44;4971216;28;20070;-70
2023/10/01 10:17:18;;;;;;;11.60;6.35;;;;;;;28.56;100.00;100759.13;4963904;28;20050;-70
2023/10/01 10:20:15;;;;;;;10.05;6.30;;;;;;;29.22;100.00;100727.72;4971718;28;20089;-69
2023/10/01 10:23:06;;;;;;;10.88;5.55;;;;;;;28.80;100.00;100751.63;4971710;28;20584;-69
2023/10/01 10:25:31;;;;;;;10.25;6.00;;;;;;;28.21;100.00;100757.00;4972706;28;20054;-70
2023/10/01 10:27:57;;;;;;;8.50;5.97;;;;;;;27.70;100.00;100737.19;4972355;28;20628;-70
2023/10/01 10:30:27;;;;;;;10.50;6.38;;;;;;;27.43;100.00;100787.44;4972467;28;20037;-70
2023/10/01 10:33:14;;;;;;;11.25;5.97;;;;;;;28.40;100.00;100771.06;4971042;28;20042;-69
2023/10/01 10:35:51;;;;;;;12.82;6.65;;;;;;;28.33;100.00;100765.53;4972602;28;20026;-69
2023/10/01 10:38:51;;;;;;;10.15;6.03;;;;;;;28.27;100.00;100768.69;4971010;28;20528;-69
2023/10/01 10:41:17;;;;;;;11.63;6.50;;;;;;;27.83;100.00;100782.25;4972382;28;20058;-70
2023/10/01 10:44:12;;;;;;;11.43;6.22;;;;;;;27.62;100.00;100791.91;4972177;28;20062;-68
2023/10/01 10:47:11;;;;;;;9.27;6.15;;;;;;;28.49;100.00;100762.38;4972315;28;20481;-69
2023/10/01 10:49:52;;;;;;;10.48;5.95;;;;;;;27.88;100.00;100706.81;4940146;28;20042;-69
2023/10/01 10:52:32;;;;;;;13.15;6.13;;;;;;;29.06;100.00;100709.94;4971022;28;20042;-69
2023/10/01 10:55:16;;;;;;;8.80;5.88;;;;;;;28.39;100.00;100694.34;4972308;28;20038;-69
2023/10/01 10:57:48;;;;;;;9.38;6.07;;;;;;;28.42;100.00;100735.13;4972147;28;20027;-69
2023/10/01 11:00:28;;;;;;;11.25;6.40;;;;;;;29.23;100.00;100742.47;4971961;28;20489;-69
2023/10/01 11:02:57;;;;;;;11.13;6.72;;;;;;;28.57;100.00;100681.38;4972138;28;20026;-69
2023/10/01 11:05:33;;;;;;;11.05;6.47;;;;;;;28.64;100.00;100701.66;4970608;28;20490;-69
2023/10/01 11:08:02;;;;;;;12.82;6.13;;;;;;;28.49;100.00;100752.75;4970530;28;20038;-69
2023/10/01 11:10:43;;;;;;;10.75;5.82;;;;;;;28.81;100.00;100736.75;4971782;28;20117;-69
2023/10/01 11:13:13;;;;;;;10.95;6.18;;;;;;;28.71;100.00;100731.53;4972011;28;20022;-69
2023/10/01 11:15:39;;;;;;;9.45;6.18;;;;;;;28.90;100.00;100683.53;4971963;28;20023;-69
2023/10/01 11:18:09;;;;;;;8.98;6.00;;;;;;;28.61;100.00;100741.19;4972089;28;20027;-69
2023/10/01 11:20:36;;;;;;;9.75;5.80;;;;;;;28.86;100.00;100655.97;4972141;28;20042;-69
2023/10/01 11:23:01;;;;;;;22.20;8.35;;;;;;;28.64;100.00;100701.66;4971404;28;20041;-69
2023/10/01 11:25:27;;;;;;;10.93;6.55;;;;;;;28.39;100.00;100749.28;4971875;28;20409;-69
2023/10/01 11:28:05;;;;;;;8.07;5.95;;;;;;;28.31;100.00;100722.19;4971839;28;20183;-69
2023/10/01 11:30:43;;;;;;;12.15;6.28;;;;;;;27.65;100.00;100708.03;4972759;28;20491;-68
2023/10/01 11:35:40;;;;;;;10.32;6.20;;;;;;;28.69;100.00;100688.13;4976252;28;20054;-69
2023/10/01 11:38:08;;;;;;;10.20;6.30;;;;;;;28.47;100.00;100759.06;4958111;28;20078;-70
2023/10/01 11:43:32;;;;;;;15.15;6.03;;;;;;;29.39;100.00;100725.16;4975539;28;20029;-70
2023/10/01 11:46:32;;;;;;;14.60;6.53;;;;;;;29.11;100.00;100713.78;4975575;28;21116;-70
2023/10/01 11:49:07;;;;;;;11.07;6.20;;;;;;;28.18;100.00;100754.69;4974112;28;20539;-69
2023/10/01 11:51:54;;;;;;;11.88;6.20;;;;;;;27.75;100.00;100763.78;4975506;28;20414;-69
2023/10/01 11:54:45;;;;;;;10.27;5.90;;;;;;;28.12;100.00;100746.53;4975012;28;20402;-69
2023/10/01 11:57:25;;;;;;;9.40;6.00;;;;;;;28.94;100.00;100688.31;4975460;28;20031;-69
2023/10/01 11:59:55;;;;;;;7.93;5.88;;;;;;;29.04;100.00;100717.94;4975299;28;20062;-70
2023/10/01 12:02:43;;;;;;;10.43;6.50;;;;;;;29.09;100.00;100726.22;4975361;28;20086;-69
2023/10/01 12:05:13;;;;;;;10.60;6.30;;;;;;;29.30;100.00;100705.03;4974017;28;20090;-69
2023/10/01 12:07:44;;;;;;;12.13;5.88;;;;;;;28.85;100.00;100663.00;4975420;28;20055;-69
2023/10/01 12:12:57;;;;;;;11.80;6.05;;;;;;;29.03;100.00;100645.56;4975173;28;20476;-69
2023/10/01 12:15:34;;;;;;;7.63;5.72;;;;;;;29.49;100.00;100678.75;4957516;28;20413;-68